createdAt,value
2017-10-12T00:02:13.335Z,100850.64
2017-10-12T00:04:40.875Z,100862.34
2017-10-12T00:07:08.543Z,100857.43
2017-10-12T00:09:36.034Z,100856.34
2017-10-12T00:12:03.518Z,100848.30
2017-10-12T00:14:31.048Z,100850.61
2017-10-12T00:16:58.526Z,100849.22
2017-10-12T00:19:26.046Z,100845.27
2017-10-12T00:21:53.559Z,100843.59
2017-10-12T00:24:21.085Z,100842.09
2017-10-12T00:26:48.568Z,100842.40
2017-10-12T00:29:16.087Z,100848.53
2017-10-12T00:31:43.565Z,100847.20
2017-10-12T00:34:11.302Z,100844.71
2017-10-12T00:36:38.783Z,100842.53
2017-10-12T00:39:06.308Z,100838.03
2017-10-12T00:41:34.274Z,100836.87
2017-10-12T00:44:01.756Z,100831.14
2017-10-12T00:46:29.283Z,100831.93
2017-10-12T00:48:56.765Z,100824.26
2017-10-12T00:51:24.249Z,100828.59
2017-10-12T00:53:51.789Z,100820.14
2017-10-12T00:56:19.323Z,100814.48
2017-10-12T00:58:46.811Z,100814.07
2017-10-12T01:01:14.350Z,100808.86
2017-10-12T01:03:41.837Z,100811.96
2017-10-12T01:06:09.324Z,100801.62
2017-10-12T01:08:36.915Z,100805.31
2017-10-12T01:11:04.406Z,100803.41
2017-10-12T01:13:31.927Z,100802.99
2017-10-12T01:15:59.456Z,100789.91
2017-10-12T01:18:26.953Z,100782.92
2017-10-12T01:20:54.500Z,100787.72
2017-10-12T01:23:22.029Z,100786.05
2017-10-12T01:25:49.516Z,100779.89
2017-10-12T01:28:17.004Z,100764.32
2017-10-12T01:30:44.645Z,100759.66
2017-10-12T01:33:12.138Z,100769.33
2017-10-12T01:35:39.628Z,100767.96
2017-10-12T01:38:07.151Z,100768.26
2017-10-12T01:40:34.638Z,100773.46
2017-10-12T01:43:02.231Z,100777.78
2017-10-12T01:45:29.756Z,100768.44
2017-10-12T01:47:57.246Z,100759.65
2017-10-12T01:50:24.733Z,100757.25
2017-10-12T01:52:52.248Z,100742.91
2017-10-12T01:55:19.815Z,100741.34
2017-10-12T01:57:47.521Z,100739.67
2017-10-12T02:00:15.009Z,100739.71
2017-10-12T02:02:42.613Z,100742.84
2017-10-12T02:05:10.155Z,100738.21
2017-10-12T02:07:37.717Z,100739.53
2017-10-12T02:10:05.205Z,100742.11
2017-10-12T02:12:32.731Z,100743.66
2017-10-12T02:15:00.215Z,100733.05
2017-10-12T02:17:27.700Z,100730.53
2017-10-12T02:19:55.211Z,100731.95
2017-10-12T02:22:22.700Z,100720.33
2017-10-12T02:24:50.323Z,100719.47
2017-10-12T02:27:17.814Z,100719.98
2017-10-12T02:29:45.309Z,100720.34
2017-10-12T02:32:12.897Z,100712.19
2017-10-12T02:34:40.468Z,100717.52
2017-10-12T02:37:07.952Z,100710.72
2017-10-12T02:39:35.507Z,100711.91
2017-10-12T02:42:02.985Z,100715.41
2017-10-12T02:44:30.474Z,100721.22
2017-10-12T02:46:57.988Z,100722.16
2017-10-12T02:49:25.487Z,100712.36
2017-10-12T02:51:53.029Z,100716.04
2017-10-12T02:54:20.516Z,100703.98
2017-10-12T02:56:48.003Z,100706.66
2017-10-12T02:59:15.525Z,100692.06
2017-10-12T03:01:43.021Z,100694.11
2017-10-12T03:04:10.545Z,100689.52
2017-10-12T03:06:38.123Z,100687.61
2017-10-12T03:09:05.611Z,100686.47
2017-10-12T03:11:33.132Z,100692.06
2017-10-12T03:14:00.713Z,100691.15
2017-10-12T03:16:28.200Z,100690.64
2017-10-12T03:18:55.835Z,100688.69
2017-10-12T03:21:23.316Z,100682.43
2017-10-12T03:23:50.802Z,100678.00
2017-10-12T03:26:18.391Z,100676.02
2017-10-12T03:28:45.877Z,100685.81
2017-10-12T03:31:13.617Z,100678.02
2017-10-12T03:33:41.100Z,100673.03
2017-10-12T03:36:08.578Z,100682.00
2017-10-12T03:38:36.091Z,100684.20
2017-10-12T03:41:03.647Z,100674.30
2017-10-12T03:43:31.131Z,100675.74
2017-10-12T03:45:58.623Z,100678.13
2017-10-12T03:48:26.159Z,100678.48
2017-10-12T03:50:53.645Z,100675.25
2017-10-12T03:53:21.133Z,100680.45
2017-10-12T03:55:48.660Z,100673.73
2017-10-12T03:58:16.176Z,100674.76
2017-10-12T04:00:43.664Z,100675.95
2017-10-12T04:03:11.220Z,100670.41
2017-10-12T04:05:38.716Z,100670.07
2017-10-12T04:08:06.203Z,100666.16
2017-10-12T04:10:33.720Z,100666.60
2017-10-12T04:13:01.231Z,100664.19
2017-10-12T04:15:28.755Z,100660.95
2017-10-12T04:17:56.336Z,100662.45
2017-10-12T04:20:23.866Z,100669.02
2017-10-12T04:22:51.348Z,100659.11
2017-10-12T04:25:18.873Z,100657.37
2017-10-12T04:27:46.367Z,100670.38
2017-10-12T04:30:13.904Z,100659.14
2017-10-12T04:32:41.460Z,100662.99
2017-10-12T04:35:08.948Z,100658.66
2017-10-12T04:37:36.429Z,100653.25
2017-10-12T04:40:03.972Z,100655.89
2017-10-12T04:42:31.499Z,100658.75
2017-10-12T04:44:58.974Z,100655.94
2017-10-12T04:47:26.524Z,100667.72
2017-10-12T04:49:54.068Z,100666.07
2017-10-12T04:52:21.631Z,100668.66
2017-10-12T04:54:49.181Z,100660.77
2017-10-12T04:57:16.681Z,100654.16
2017-10-12T04:59:44.168Z,100664.22
2017-10-12T05:02:11.697Z,100655.73
2017-10-12T05:04:39.192Z,100655.30
2017-10-12T05:07:06.681Z,100660.00
2017-10-12T05:09:34.210Z,100659.95
2017-10-12T05:12:01.705Z,100655.77
2017-10-12T05:14:29.199Z,100652.78
2017-10-12T05:16:56.743Z,100649.98
2017-10-12T05:19:24.292Z,100647.16
2017-10-12T05:21:51.788Z,100647.98
2017-10-12T05:24:19.304Z,100649.38
2017-10-12T05:26:46.791Z,100649.13
2017-10-12T05:29:14.339Z,100645.62
2017-10-12T05:31:41.825Z,100639.91
2017-10-12T05:34:09.429Z,100642.80
2017-10-12T05:36:36.946Z,100649.00
2017-10-12T05:39:04.443Z,100651.48
2017-10-12T05:41:32.107Z,100654.27
2017-10-12T05:43:59.596Z,100661.63
2017-10-12T05:46:27.086Z,100663.45
2017-10-12T05:48:54.629Z,100660.41
2017-10-12T05:51:22.113Z,100666.50
2017-10-12T05:53:49.590Z,100679.94
2017-10-12T05:56:17.254Z,100678.80
2017-10-12T05:58:44.749Z,100670.44
2017-10-12T06:01:12.267Z,100667.38
2017-10-12T06:03:39.796Z,100673.95
2017-10-12T06:06:07.378Z,100679.72
2017-10-12T06:08:34.864Z,100689.28
2017-10-12T06:11:02.392Z,100695.39
2017-10-12T06:13:29.895Z,100690.73
2017-10-12T06:15:57.383Z,100689.45
2017-10-12T06:18:24.910Z,100693.86
2017-10-12T06:20:52.392Z,100693.61
2017-10-12T06:23:19.876Z,100698.17
2017-10-12T06:25:47.404Z,100706.46
2017-10-12T06:28:14.906Z,100703.66
2017-10-12T06:30:42.403Z,100702.88
2017-10-12T06:33:09.920Z,100699.09
2017-10-12T06:35:37.507Z,100694.78
2017-10-12T06:38:05.044Z,100702.48
2017-10-12T06:40:32.600Z,100708.27
2017-10-12T06:43:00.083Z,100706.58
2017-10-12T06:45:27.628Z,100706.83
2017-10-12T06:47:55.111Z,100714.84
2017-10-12T06:50:22.601Z,100722.66
2017-10-12T06:52:50.160Z,100725.73
2017-10-12T06:55:17.654Z,100721.30
2017-10-12T06:57:45.152Z,100727.03
2017-10-12T07:00:12.689Z,100731.77
2017-10-12T07:02:40.178Z,100731.65
2017-10-12T07:05:07.651Z,100728.31
2017-10-12T07:07:35.183Z,100722.86
2017-10-12T07:10:02.707Z,100726.29
2017-10-12T07:12:30.196Z,100726.88
2017-10-12T07:14:57.738Z,100740.53
2017-10-12T07:17:25.231Z,100740.97
2017-10-12T07:19:52.715Z,100749.62
2017-10-12T07:22:20.234Z,100752.20
2017-10-12T07:24:47.746Z,100755.53
2017-10-12T07:27:15.306Z,100765.91
2017-10-12T07:29:42.891Z,100764.38
2017-10-12T07:32:10.371Z,100761.98
2017-10-12T07:34:37.888Z,100764.36
2017-10-12T07:37:05.375Z,100774.35
2017-10-12T07:39:33.108Z,100767.10
2017-10-12T07:42:00.661Z,100771.08
2017-10-12T07:44:28.163Z,100784.12
2017-10-12T07:46:55.681Z,100779.69
2017-10-12T07:49:23.261Z,100787.76
2017-10-12T07:51:50.738Z,100804.36
2017-10-12T07:54:18.231Z,100791.46
2017-10-12T07:56:45.926Z,100802.33
2017-10-12T07:59:13.408Z,100814.45
2017-10-12T08:01:40.892Z,100810.39
2017-10-12T08:04:08.411Z,100807.30
2017-10-12T08:06:35.948Z,100803.13
2017-10-12T08:09:03.459Z,100808.53
2017-10-12T08:11:30.976Z,100801.38
2017-10-12T08:13:58.497Z,100809.77
2017-10-12T08:16:26.017Z,100810.41
2017-10-12T08:18:53.504Z,100815.02
2017-10-12T08:21:21.034Z,100809.59
2017-10-12T08:23:48.519Z,100816.89
2017-10-12T08:26:16.020Z,100812.41
2017-10-12T08:28:43.568Z,100810.66
2017-10-12T08:31:11.048Z,100816.44
2017-10-12T08:33:38.615Z,100806.05
2017-10-12T08:36:06.159Z,100802.68
2017-10-12T08:38:33.649Z,100809.09
2017-10-12T08:41:01.141Z,100807.06
2017-10-12T08:43:28.674Z,100803.41
2017-10-12T08:45:56.183Z,100802.35
2017-10-12T08:48:23.670Z,100813.50
2017-10-12T08:50:51.221Z,100810.20
2017-10-12T08:53:18.705Z,100807.34
2017-10-12T08:55:46.217Z,100811.45
2017-10-12T08:58:13.775Z,100810.83
2017-10-12T09:00:41.253Z,100815.86
2017-10-12T09:03:08.804Z,100812.33
2017-10-12T09:05:36.286Z,100820.82
2017-10-12T09:08:03.773Z,100819.56
2017-10-12T09:10:31.363Z,100819.98
2017-10-12T09:12:58.847Z,100815.14
2017-10-12T09:15:26.332Z,100809.75
2017-10-12T09:17:53.950Z,100822.80
2017-10-12T09:20:21.430Z,100836.50
2017-10-12T09:22:48.915Z,100842.23
2017-10-12T09:25:16.440Z,100837.97
2017-10-12T09:27:43.923Z,100848.33
2017-10-12T09:30:11.411Z,100848.48
2017-10-12T09:32:38.944Z,100852.58
2017-10-12T09:35:06.471Z,100853.89
2017-10-12T09:37:33.960Z,100862.59
2017-10-12T09:40:01.580Z,100864.69
2017-10-12T09:42:29.068Z,100864.41
2017-10-12T09:44:56.604Z,100860.31
2017-10-12T09:47:24.152Z,100852.30
2017-10-12T09:49:51.648Z,100870.77
2017-10-12T09:52:19.156Z,100875.66
2017-10-12T09:54:46.692Z,100872.17
2017-10-12T09:57:14.184Z,100889.23
2017-10-12T09:59:41.662Z,100895.96
2017-10-12T10:02:09.214Z,100902.28
2017-10-12T10:04:36.723Z,100909.69
2017-10-12T10:07:04.215Z,100909.31
2017-10-12T10:09:31.767Z,100923.94
2017-10-12T10:11:59.278Z,100921.16
2017-10-12T10:14:26.780Z,100926.82
2017-10-12T10:16:54.367Z,100926.69
2017-10-12T10:19:21.855Z,100927.72
2017-10-12T10:21:49.344Z,100929.30
2017-10-12T10:24:16.873Z,100932.58
2017-10-12T10:26:44.351Z,100936.38
2017-10-12T10:29:11.853Z,100950.63
2017-10-12T10:31:39.368Z,100950.26
2017-10-12T10:34:06.863Z,100951.34
2017-10-12T10:36:34.380Z,100956.43
2017-10-12T10:39:01.969Z,100956.12
2017-10-12T10:41:29.457Z,100954.54
2017-10-12T10:43:56.947Z,100957.88
2017-10-12T10:46:24.460Z,100957.91
2017-10-12T10:48:51.976Z,100963.00
2017-10-12T10:51:19.503Z,100970.23
2017-10-12T10:53:46.992Z,100963.24
2017-10-12T10:56:14.500Z,100957.84
2017-10-12T10:58:42.035Z,100964.23
2017-10-12T11:01:09.515Z,100969.06
2017-10-12T11:03:37.068Z,100970.73
2017-10-12T11:06:04.559Z,100977.41
2017-10-12T11:08:32.044Z,100978.77
2017-10-12T11:10:59.597Z,100985.39
2017-10-12T11:13:27.083Z,100987.45
2017-10-12T11:15:54.651Z,100990.41
2017-10-12T11:18:22.184Z,101002.61
2017-10-12T11:20:49.660Z,101008.36
2017-10-12T11:23:17.156Z,101017.56
2017-10-12T11:25:44.678Z,101005.56
2017-10-12T11:28:12.170Z,101013.83
2017-10-12T11:30:39.648Z,101017.97
2017-10-12T11:33:07.196Z,101024.83
2017-10-12T11:35:34.695Z,101019.63
2017-10-12T11:38:02.184Z,101030.56
2017-10-12T11:40:29.744Z,101022.25
2017-10-12T11:42:57.220Z,101024.47
2017-10-12T11:45:24.699Z,101029.39
2017-10-12T11:47:52.237Z,101038.11
2017-10-12T11:50:19.727Z,101025.50
2017-10-12T11:52:47.214Z,101029.70
2017-10-12T11:55:14.753Z,101035.92
2017-10-12T11:57:42.243Z,101037.69
2017-10-12T12:00:09.810Z,101039.48
2017-10-12T12:02:37.443Z,101040.76
2017-10-12T12:05:05.010Z,101044.00
2017-10-12T12:07:32.496Z,101043.46
2017-10-12T12:10:00.036Z,101052.08
2017-10-12T12:12:27.531Z,101046.33
2017-10-12T12:14:55.018Z,101036.87
2017-10-12T12:17:22.540Z,101052.23
2017-10-12T12:19:50.036Z,101064.80
2017-10-12T12:22:17.574Z,101066.70
2017-10-12T12:24:45.057Z,101072.96
2017-10-12T12:27:12.558Z,101060.37
2017-10-12T12:29:40.096Z,101074.98
2017-10-12T12:32:07.580Z,101069.69
2017-10-12T12:34:35.063Z,101069.42
2017-10-12T12:37:02.597Z,101088.05
2017-10-12T12:39:30.119Z,101089.86
2017-10-12T12:41:57.603Z,101088.11
2017-10-12T12:44:25.150Z,101076.98
2017-10-12T12:46:52.643Z,101103.59
2017-10-12T12:49:20.169Z,101084.31
2017-10-12T12:51:47.739Z,101107.54
2017-10-12T12:54:15.220Z,101100.87
2017-10-12T12:56:42.726Z,101117.03
2017-10-12T12:59:10.243Z,101114.45
2017-10-12T13:01:37.777Z,101129.62
2017-10-12T13:04:05.268Z,101131.85
2017-10-12T13:06:32.759Z,101137.81
2017-10-12T13:09:00.349Z,101131.33
2017-10-12T13:11:27.847Z,101129.23
2017-10-12T13:13:55.328Z,101146.32
2017-10-12T13:16:22.861Z,101137.82
2017-10-12T13:18:50.348Z,101149.28
2017-10-12T13:21:17.831Z,101153.02
2017-10-12T13:23:45.379Z,101157.30
2017-10-12T13:26:12.928Z,101163.30
2017-10-12T13:28:40.411Z,101158.82
2017-10-12T13:31:07.942Z,101176.45
2017-10-12T13:33:35.531Z,101175.27
2017-10-12T13:36:03.019Z,101178.45
2017-10-12T13:38:30.564Z,101187.69
2017-10-12T13:40:58.052Z,101190.56
2017-10-12T13:43:25.542Z,101192.81
2017-10-12T13:45:53.078Z,101188.39
2017-10-12T13:48:20.580Z,101200.52
2017-10-12T13:50:48.078Z,101197.42
2017-10-12T13:53:15.618Z,101203.75
2017-10-12T13:55:43.111Z,101193.77
2017-10-12T13:58:10.612Z,101204.80
2017-10-12T14:00:38.136Z,101201.36
2017-10-12T14:03:05.630Z,101196.66
2017-10-12T14:05:33.154Z,101211.86
2017-10-12T14:08:00.642Z,101222.66
2017-10-12T14:10:28.169Z,101219.68
2017-10-12T14:12:55.655Z,101227.45
2017-10-12T14:15:23.151Z,101222.94
2017-10-12T14:17:50.681Z,101229.61
2017-10-12T14:20:18.172Z,101245.80
2017-10-12T14:22:45.657Z,101240.20
2017-10-12T14:25:13.183Z,101251.45
2017-10-12T14:27:40.665Z,101252.17
2017-10-12T14:30:08.166Z,101264.66
2017-10-12T14:32:35.679Z,101257.00
2017-10-12T14:35:03.216Z,101255.59
2017-10-12T14:37:30.747Z,101261.78
2017-10-12T14:39:58.234Z,101266.30
2017-10-12T14:42:25.727Z,101272.03
2017-10-12T14:44:53.263Z,101268.65
2017-10-12T14:47:20.743Z,101273.67
2017-10-12T14:49:48.230Z,101284.12
2017-10-12T14:52:15.775Z,101285.94
2017-10-12T14:54:43.330Z,101283.27
2017-10-12T14:57:10.824Z,101276.25
2017-10-12T14:59:38.367Z,101289.30
2017-10-12T15:02:05.852Z,101292.05
2017-10-12T15:04:33.340Z,101284.56
2017-10-12T15:07:00.864Z,101287.22
2017-10-12T15:09:28.415Z,101296.24
2017-10-12T15:11:55.906Z,101296.17
2017-10-12T15:14:23.392Z,101294.94
2017-10-12T15:16:50.961Z,101295.94
2017-10-12T15:19:18.519Z,101288.02
2017-10-12T15:21:46.013Z,101297.36
2017-10-12T15:24:13.576Z,101306.01
2017-10-12T15:26:41.060Z,101301.41
2017-10-12T15:29:08.552Z,101308.46
2017-10-12T15:31:36.112Z,101316.73
2017-10-12T15:34:03.648Z,101317.33
2017-10-12T15:36:31.131Z,101321.24
2017-10-12T15:38:58.626Z,101327.73
2017-10-12T15:41:26.169Z,101328.15
2017-10-12T15:43:53.660Z,101324.86
2017-10-12T15:46:21.176Z,101329.69
2017-10-12T15:48:48.705Z,101326.19
2017-10-12T15:51:16.278Z,101334.63
2017-10-12T15:53:43.768Z,101338.77
2017-10-12T15:56:11.388Z,101345.63
2017-10-12T15:58:38.956Z,101344.53
2017-10-12T16:01:06.448Z,101355.34
2017-10-12T16:03:33.948Z,101349.47
2017-10-12T16:06:01.485Z,101349.77
2017-10-12T16:08:28.989Z,101354.22
2017-10-12T16:10:56.482Z,101359.52
2017-10-12T16:13:24.040Z,101355.26
2017-10-12T16:15:51.580Z,101356.27
2017-10-12T16:18:19.069Z,101362.02
2017-10-12T16:20:46.584Z,101363.19
2017-10-12T16:23:14.137Z,101363.95
2017-10-12T16:25:41.633Z,101369.23
2017-10-12T16:28:09.270Z,101374.06
2017-10-12T16:30:36.755Z,101379.80
2017-10-12T16:35:31.808Z,101392.42
2017-10-12T16:37:59.320Z,101389.50
2017-10-12T16:40:26.817Z,101393.30
2017-10-12T16:42:54.410Z,101395.36
2017-10-12T16:45:21.968Z,101399.92
2017-10-12T16:47:49.458Z,101401.80
2017-10-12T16:50:16.989Z,101402.05
2017-10-12T16:52:44.483Z,101399.52
2017-10-12T16:55:11.976Z,101408.12
2017-10-12T16:57:39.577Z,101410.09
2017-10-12T17:00:07.066Z,101404.92
2017-10-12T17:02:34.548Z,101401.47
2017-10-12T17:05:02.129Z,101412.48
2017-10-12T17:07:29.623Z,101416.19
2017-10-12T17:09:57.119Z,101417.73
2017-10-12T17:12:24.649Z,101419.32
2017-10-12T17:14:52.139Z,101421.85
2017-10-12T17:17:19.693Z,101436.20
2017-10-12T17:19:47.202Z,101430.44
2017-10-12T17:22:14.744Z,101432.77
2017-10-12T17:24:42.306Z,101431.48
2017-10-12T17:27:09.796Z,101434.20
2017-10-12T17:29:37.284Z,101425.49
2017-10-12T17:32:04.814Z,101433.87
2017-10-12T17:34:32.301Z,101429.66
2017-10-12T17:36:59.792Z,101435.25
2017-10-12T17:39:27.324Z,101437.27
2017-10-12T17:41:54.907Z,101438.09
2017-10-12T17:44:22.389Z,101435.37
2017-10-12T17:46:50.036Z,101437.73
2017-10-12T17:49:17.527Z,101437.47
2017-10-12T17:51:45.017Z,101439.70
2017-10-12T17:54:41.874Z,101439.53
2017-10-12T17:56:40.088Z,101443.73
2017-10-12T17:59:07.625Z,101445.22
2017-10-12T18:01:35.968Z,101444.69
2017-10-12T18:04:03.577Z,101451.61
2017-10-12T18:06:31.067Z,101454.55
2017-10-12T18:08:58.592Z,101463.37
2017-10-12T18:11:26.084Z,101460.86
2017-10-12T18:13:53.598Z,101460.98
2017-10-12T18:16:21.152Z,101467.72
2017-10-12T18:18:48.642Z,101476.99
2017-10-12T18:21:16.144Z,101472.16
2017-10-12T18:23:43.665Z,101473.81
2017-10-12T18:26:11.202Z,101478.63
2017-10-12T18:28:38.744Z,101482.09
2017-10-12T18:31:06.236Z,101474.27
2017-10-12T18:33:33.758Z,101479.50
2017-10-12T18:36:01.321Z,101482.22
2017-10-12T18:38:28.858Z,101482.92
2017-10-12T18:40:56.353Z,101480.45
2017-10-12T18:43:23.928Z,101489.58
2017-10-12T18:45:51.468Z,101482.28
2017-10-12T18:48:19.011Z,101477.50
2017-10-12T18:50:46.507Z,101488.53
2017-10-12T18:53:14.131Z,101490.19
2017-10-12T18:55:41.628Z,101493.91
2017-10-12T18:58:09.116Z,101496.55
2017-10-12T19:00:36.676Z,101502.41
2017-10-12T19:03:04.167Z,101487.36
2017-10-12T19:05:31.662Z,101497.80
2017-10-12T19:07:59.194Z,101499.06
2017-10-12T19:10:26.680Z,101497.64
2017-10-12T19:12:54.217Z,101496.04
2017-10-12T19:15:21.807Z,101506.19
2017-10-12T19:17:49.289Z,101498.92
2017-10-12T19:20:16.778Z,101504.53
2017-10-12T19:22:44.300Z,101504.67
2017-10-12T19:25:11.791Z,101508.13
2017-10-12T19:27:39.283Z,101506.28
2017-10-12T19:30:06.799Z,101507.64
2017-10-12T19:32:34.305Z,101502.83
2017-10-12T19:35:01.846Z,101511.84
2017-10-12T19:37:29.332Z,101514.03
2017-10-12T19:39:56.835Z,101523.47
2017-10-12T19:42:24.352Z,101517.83
2017-10-12T19:44:51.841Z,101522.44
2017-10-12T19:47:19.360Z,101524.75
2017-10-12T19:49:46.972Z,101522.36
2017-10-12T19:52:14.474Z,101528.34
2017-10-12T19:54:41.988Z,101529.09
2017-10-12T19:57:09.511Z,101522.20
2017-10-12T19:59:37.109Z,101526.70
2017-10-12T20:02:04.685Z,101528.26
2017-10-12T20:04:32.168Z,101531.92
2017-10-12T20:06:59.676Z,101527.10
2017-10-12T20:09:27.186Z,101528.46
2017-10-12T20:11:54.700Z,101528.30
2017-10-12T20:14:22.237Z,101527.59
2017-10-12T20:16:49.756Z,101527.52
2017-10-12T20:19:17.275Z,101543.30
2017-10-12T20:21:44.855Z,101545.52
2017-10-12T20:26:39.945Z,101550.91
2017-10-12T20:29:36.212Z,101557.50
2017-10-12T20:31:35.177Z,101558.33
2017-10-12T20:36:31.109Z,101563.02
2017-10-12T20:38:58.597Z,101558.33
2017-10-12T20:41:26.120Z,101556.27
2017-10-12T20:43:53.610Z,101559.93
2017-10-12T20:46:21.162Z,101568.91
2017-10-12T20:48:48.699Z,101567.67
2017-10-12T20:51:16.282Z,101568.23
2017-10-12T20:53:43.791Z,101568.33
2017-10-12T20:56:11.339Z,101567.47
2017-10-12T20:58:38.826Z,101566.02
2017-10-12T21:01:06.400Z,101565.43
2017-10-12T21:03:33.962Z,101571.72
2017-10-12T21:06:01.509Z,101570.58
2017-10-12T21:08:28.995Z,101567.35
2017-10-12T21:10:56.549Z,101574.77
2017-10-12T21:13:24.035Z,101581.59
2017-10-12T21:15:51.524Z,101577.62
2017-10-12T21:18:19.110Z,101579.81
2017-10-12T21:20:46.609Z,101578.55
2017-10-12T21:23:14.168Z,101581.17
2017-10-12T21:25:41.658Z,101574.61
2017-10-12T21:28:09.162Z,101587.90
2017-10-12T21:30:36.687Z,101581.55
2017-10-12T21:33:04.175Z,101585.63
2017-10-12T21:35:31.716Z,101582.28
2017-10-12T21:37:59.247Z,101580.19
2017-10-12T21:40:26.736Z,101585.23
2017-10-12T21:42:54.229Z,101590.43
2017-10-12T21:45:21.810Z,101588.77
2017-10-12T21:47:49.473Z,101591.28
2017-10-12T21:50:17.133Z,101597.03
2017-10-12T21:52:44.684Z,101603.73
2017-10-12T21:55:12.273Z,101607.49
2017-10-12T21:57:39.873Z,101601.20
2017-10-12T22:00:07.437Z,101607.05
2017-10-12T22:02:34.998Z,101611.74
2017-10-12T22:05:02.693Z,101614.37
2017-10-12T22:07:30.350Z,101605.92
2017-10-12T22:09:57.910Z,101611.23
2017-10-12T22:12:25.529Z,101614.06
2017-10-12T22:14:53.081Z,101614.62
2017-10-12T22:17:20.698Z,101612.84
2017-10-12T22:19:48.289Z,101610.86
2017-10-12T22:22:15.841Z,101601.80
2017-10-12T22:24:43.400Z,101606.27
2017-10-12T22:27:10.994Z,101604.48
2017-10-12T22:29:38.547Z,101603.16
2017-10-12T22:32:06.137Z,101596.14
2017-10-12T22:34:33.732Z,101596.89
2017-10-12T22:37:01.377Z,101597.09
2017-10-12T22:39:28.999Z,101598.56
2017-10-12T22:41:56.559Z,101600.02
2017-10-12T22:44:24.113Z,101597.23
2017-10-12T22:46:51.715Z,101601.29
2017-10-12T22:49:19.270Z,101605.59
2017-10-12T22:51:46.818Z,101605.89
2017-10-12T22:54:14.424Z,101613.53
2017-10-12T22:56:42.052Z,101611.33
2017-10-12T22:59:09.613Z,101615.21
2017-10-12T23:01:37.226Z,101623.05
2017-10-12T23:04:04.777Z,101619.07
2017-10-12T23:06:32.330Z,101607.50
2017-10-12T23:08:59.949Z,101599.97
2017-10-12T23:14:01.358Z,101616.37
2017-10-12T23:16:28.927Z,101614.82
2017-10-12T23:18:56.477Z,101612.30
2017-10-12T23:21:24.097Z,101624.75
2017-10-12T23:23:51.652Z,101622.12
2017-10-12T23:26:19.205Z,101627.66
2017-10-12T23:28:46.812Z,101628.28
2017-10-12T23:31:14.362Z,101629.33
2017-10-12T23:33:41.962Z,101635.91
2017-10-12T23:36:09.561Z,101635.38
2017-10-12T23:38:37.114Z,101637.26
2017-10-12T23:41:04.668Z,101632.05
2017-10-12T23:43:32.309Z,101626.94
2017-10-12T23:45:59.893Z,101631.12
2017-10-12T23:48:27.451Z,101626.00
2017-10-12T23:50:55.164Z,101627.58
2017-10-12T23:53:22.688Z,101631.22
2017-10-12T23:55:50.201Z,101633.84
2017-10-12T23:58:17.754Z,101628.19
